sensor_id;sensor_type;location;lat;lon;timestamp;P1;durP1;ratioP1;P2;durP2;ratioP2
6842;SDS011;3460;52.028;8.916;2023-07-29T00:01:46;4.00;;;3.17;;
6842;SDS011;3460;52.028;8.916;2023-07-29T00:04:14;4.40;;;3.63;;
6842;SDS011;3460;52.028;8.916;2023-07-29T00:06:41;5.83;;;5.43;;
6842;SDS011;3460;52.028;8.916;2023-07-29T00:09:08;3.47;;;2.57;;
6842;SDS011;3460;52.028;8.916;2023-07-29T00:11:34;5.37;;;3.57;;
6842;SDS011;3460;52.028;8.916;2023-07-29T00:14:03;4.83;;;4.53;;
6842;SDS011;3460;52.028;8.916;2023-07-29T00:16:29;4.70;;;4.30;;
6842;SDS011;3460;52.028;8.916;2023-07-29T00:18:56;3.27;;;2.70;;
6842;SDS011;3460;52.028;8.916;2023-07-29T00:21:24;4.47;;;3.80;;
6842;SDS011;3460;52.028;8.916;2023-07-29T00:23:51;7.00;;;3.50;;
6842;SDS011;3460;52.028;8.916;2023-07-29T00:26:17;2.97;;;2.33;;
6842;SDS011;3460;52.028;8.916;2023-07-29T00:28:45;4.30;;;3.07;;
6842;SDS011;3460;52.028;8.916;2023-07-29T00:31:13;3.53;;;1.90;;
6842;SDS011;3460;52.028;8.916;2023-07-29T00:33:40;4.73;;;4.33;;
6842;SDS011;3460;52.028;8.916;2023-07-29T00:36:07;2.17;;;1.97;;
6842;SDS011;3460;52.028;8.916;2023-07-29T00:38:33;3.93;;;2.77;;
6842;SDS011;3460;52.028;8.916;2023-07-29T00:41:00;1.93;;;1.73;;
6842;SDS011;3460;52.028;8.916;2023-07-29T00:43:28;3.07;;;2.03;;
6842;SDS011;3460;52.028;8.916;2023-07-29T00:45:55;2.07;;;1.50;;
6842;SDS011;3460;52.028;8.916;2023-07-29T00:48:24;3.87;;;1.73;;
6842;SDS011;3460;52.028;8.916;2023-07-29T00:50:51;4.57;;;3.60;;
6842;SDS011;3460;52.028;8.916;2023-07-29T00:53:18;3.30;;;3.00;;
6842;SDS011;3460;52.028;8.916;2023-07-29T00:55:45;2.93;;;2.70;;
6842;SDS011;3460;52.028;8.916;2023-07-29T00:58:11;4.40;;;4.00;;
6842;SDS011;3460;52.028;8.916;2023-07-29T01:00:38;2.87;;;1.90;;
6842;SDS011;3460;52.028;8.916;2023-07-29T01:03:06;5.93;;;4.23;;
6842;SDS011;3460;52.028;8.916;2023-07-29T01:05:36;2.33;;;1.90;;
6842;SDS011;3460;52.028;8.916;2023-07-29T01:08:12;7.27;;;5.40;;
6842;SDS011;3460;52.028;8.916;2023-07-29T01:10:51;4.03;;;1.40;;
6842;SDS011;3460;52.028;8.916;2023-07-29T01:13:25;5.60;;;5.10;;
6842;SDS011;3460;52.028;8.916;2023-07-29T01:15:58;4.13;;;3.10;;
6842;SDS011;3460;52.028;8.916;2023-07-29T01:18:32;5.77;;;3.20;;
6842;SDS011;3460;52.028;8.916;2023-07-29T01:21:07;8.00;;;2.90;;
6842;SDS011;3460;52.028;8.916;2023-07-29T01:23:36;6.20;;;5.00;;
6842;SDS011;3460;52.028;8.916;2023-07-29T01:26:03;5.93;;;4.70;;
6842;SDS011;3460;52.028;8.916;2023-07-29T01:28:30;6.10;;;5.60;;
6842;SDS011;3460;52.028;8.916;2023-07-29T01:30:58;1.93;;;1.73;;
6842;SDS011;3460;52.028;8.916;2023-07-29T01:33:34;6.93;;;6.27;;
6842;SDS011;3460;52.028;8.916;2023-07-29T01:36:06;6.80;;;6.30;;
6842;SDS011;3460;52.028;8.916;2023-07-29T01:38:45;3.07;;;2.50;;
6842;SDS011;3460;52.028;8.916;2023-07-29T01:41:14;4.93;;;4.53;;
6842;SDS011;3460;52.028;8.916;2023-07-29T01:43:43;5.27;;;3.83;;
6842;SDS011;3460;52.028;8.916;2023-07-29T01:46:11;6.17;;;5.23;;
6842;SDS011;3460;52.028;8.916;2023-07-29T01:48:38;3.17;;;2.67;;
6842;SDS011;3460;52.028;8.916;2023-07-29T01:51:06;5.03;;;4.53;;
6842;SDS011;3460;52.028;8.916;2023-07-29T01:53:33;5.57;;;5.07;;
6842;SDS011;3460;52.028;8.916;2023-07-29T01:56:01;3.60;;;3.30;;
6842;SDS011;3460;52.028;8.916;2023-07-29T01:58:28;4.97;;;4.57;;
6842;SDS011;3460;52.028;8.916;2023-07-29T02:00:55;5.60;;;5.10;;
6842;SDS011;3460;52.028;8.916;2023-07-29T02:03:22;3.10;;;2.47;;
6842;SDS011;3460;52.028;8.916;2023-07-29T02:05:48;2.07;;;1.87;;
6842;SDS011;3460;52.028;8.916;2023-07-29T02:08:15;5.33;;;4.33;;
6842;SDS011;3460;52.028;8.916;2023-07-29T02:10:42;4.10;;;1.80;;
6842;SDS011;3460;52.028;8.916;2023-07-29T02:13:11;5.27;;;4.67;;
6842;SDS011;3460;52.028;8.916;2023-07-29T02:15:38;2.10;;;1.90;;
6842;SDS011;3460;52.028;8.916;2023-07-29T02:18:05;3.97;;;3.30;;
6842;SDS011;3460;52.028;8.916;2023-07-29T02:20:32;5.37;;;4.70;;
6842;SDS011;3460;52.028;8.916;2023-07-29T02:22:59;4.67;;;3.87;;
6842;SDS011;3460;52.028;8.916;2023-07-29T02:25:26;6.30;;;5.87;;
6842;SDS011;3460;52.028;8.916;2023-07-29T02:27:52;4.40;;;2.70;;
6842;SDS011;3460;52.028;8.916;2023-07-29T02:30:21;3.00;;;2.70;;
6842;SDS011;3460;52.028;8.916;2023-07-29T02:32:48;3.13;;;2.83;;
6842;SDS011;3460;52.028;8.916;2023-07-29T02:35:15;3.43;;;3.13;;
6842;SDS011;3460;52.028;8.916;2023-07-29T02:37:42;7.40;;;6.73;;
6842;SDS011;3460;52.028;8.916;2023-07-29T02:40:09;4.27;;;2.10;;
6842;SDS011;3460;52.028;8.916;2023-07-29T02:42:36;3.87;;;3.27;;
6842;SDS011;3460;52.028;8.916;2023-07-29T02:45:04;5.53;;;3.60;;
6842;SDS011;3460;52.028;8.916;2023-07-29T02:47:36;2.40;;;2.20;;
6842;SDS011;3460;52.028;8.916;2023-07-29T02:50:02;3.63;;;2.00;;
6842;SDS011;3460;52.028;8.916;2023-07-29T02:52:30;3.87;;;3.57;;
6842;SDS011;3460;52.028;8.916;2023-07-29T02:54:57;5.13;;;4.63;;
6842;SDS011;3460;52.028;8.916;2023-07-29T02:57:24;7.70;;;4.70;;
6842;SDS011;3460;52.028;8.916;2023-07-29T02:59:50;3.47;;;3.17;;
6842;SDS011;3460;52.028;8.916;2023-07-29T03:02:17;4.47;;;2.43;;
6842;SDS011;3460;52.028;8.916;2023-07-29T03:04:45;4.50;;;2.57;;
6842;SDS011;3460;52.028;8.916;2023-07-29T03:07:14;3.27;;;2.10;;
6842;SDS011;3460;52.028;8.916;2023-07-29T03:09:41;4.33;;;2.80;;
6842;SDS011;3460;52.028;8.916;2023-07-29T03:12:09;4.23;;;3.27;;
6842;SDS011;3460;52.028;8.916;2023-07-29T03:14:36;3.60;;;3.10;;
6842;SDS011;3460;52.028;8.916;2023-07-29T03:17:03;3.63;;;3.33;;
6842;SDS011;3460;52.028;8.916;2023-07-29T03:19:30;4.27;;;3.87;;
6842;SDS011;3460;52.028;8.916;2023-07-29T03:21:58;5.60;;;5.03;;
6842;SDS011;3460;52.028;8.916;2023-07-29T03:24:25;4.07;;;2.03;;
6842;SDS011;3460;52.028;8.916;2023-07-29T03:26:52;6.03;;;5.33;;
6842;SDS011;3460;52.028;8.916;2023-07-29T03:29:19;4.53;;;4.17;;
6842;SDS011;3460;52.028;8.916;2023-07-29T03:31:45;6.70;;;2.43;;
6842;SDS011;3460;52.028;8.916;2023-07-29T03:34:12;4.70;;;2.20;;
6842;SDS011;3460;52.028;8.916;2023-07-29T03:36:39;4.33;;;2.83;;
6842;SDS011;3460;52.028;8.916;2023-07-29T03:39:08;7.20;;;6.60;;
6842;SDS011;3460;52.028;8.916;2023-07-29T03:41:34;3.80;;;3.50;;
6842;SDS011;3460;52.028;8.916;2023-07-29T03:44:01;6.53;;;4.83;;
6842;SDS011;3460;52.028;8.916;2023-07-29T03:46:28;2.73;;;2.53;;
6842;SDS011;3460;52.028;8.916;2023-07-29T03:48:55;4.73;;;4.20;;
6842;SDS011;3460;52.028;8.916;2023-07-29T03:51:22;2.40;;;2.00;;
6842;SDS011;3460;52.028;8.916;2023-07-29T03:53:49;5.57;;;3.17;;
6842;SDS011;3460;52.028;8.916;2023-07-29T03:56:17;4.73;;;4.10;;
6842;SDS011;3460;52.028;8.916;2023-07-29T03:58:45;4.77;;;3.60;;
6842;SDS011;3460;52.028;8.916;2023-07-29T04:01:13;4.20;;;3.00;;
6842;SDS011;3460;52.028;8.916;2023-07-29T04:03:40;3.73;;;2.00;;
6842;SDS011;3460;52.028;8.916;2023-07-29T04:06:06;7.67;;;4.50;;
6842;SDS011;3460;52.028;8.916;2023-07-29T04:08:33;6.90;;;6.20;;
6842;SDS011;3460;52.028;8.916;2023-07-29T04:11:00;5.47;;;5.07;;
6842;SDS011;3460;52.028;8.916;2023-07-29T04:13:28;4.87;;;4.40;;
6842;SDS011;3460;52.028;8.916;2023-07-29T04:15:55;2.37;;;2.17;;
6842;SDS011;3460;52.028;8.916;2023-07-29T04:18:22;3.63;;;2.23;;
6842;SDS011;3460;52.028;8.916;2023-07-29T04:20:49;3.73;;;2.77;;
6842;SDS011;3460;52.028;8.916;2023-07-29T04:23:15;4.20;;;2.20;;
6842;SDS011;3460;52.028;8.916;2023-07-29T04:25:42;5.13;;;2.60;;
6842;SDS011;3460;52.028;8.916;2023-07-29T04:28:09;3.20;;;1.70;;
6842;SDS011;3460;52.028;8.916;2023-07-29T04:30:37;3.53;;;2.87;;
6842;SDS011;3460;52.028;8.916;2023-07-29T04:33:04;4.20;;;2.60;;
6842;SDS011;3460;52.028;8.916;2023-07-29T04:35:31;5.57;;;5.03;;
6842;SDS011;3460;52.028;8.916;2023-07-29T04:37:57;5.70;;;5.20;;
6842;SDS011;3460;52.028;8.916;2023-07-29T04:40:24;4.20;;;3.83;;
6842;SDS011;3460;52.028;8.916;2023-07-29T04:42:51;3.07;;;2.73;;
6842;SDS011;3460;52.028;8.916;2023-07-29T04:45:18;3.73;;;3.23;;
6842;SDS011;3460;52.028;8.916;2023-07-29T04:47:46;3.00;;;2.10;;
6842;SDS011;3460;52.028;8.916;2023-07-29T04:50:13;2.73;;;2.50;;
6842;SDS011;3460;52.028;8.916;2023-07-29T04:52:40;4.83;;;2.53;;
6842;SDS011;3460;52.028;8.916;2023-07-29T04:55:07;5.30;;;3.30;;
6842;SDS011;3460;52.028;8.916;2023-07-29T04:57:34;7.33;;;4.57;;
6842;SDS011;3460;52.028;8.916;2023-07-29T05:00:02;4.07;;;2.13;;
6842;SDS011;3460;52.028;8.916;2023-07-29T05:02:29;6.87;;;4.53;;
6842;SDS011;3460;52.028;8.916;2023-07-29T05:04:57;3.90;;;2.53;;
6842;SDS011;3460;52.028;8.916;2023-07-29T05:07:24;6.20;;;5.60;;
6842;SDS011;3460;52.028;8.916;2023-07-29T05:09:51;6.63;;;4.43;;
6842;SDS011;3460;52.028;8.916;2023-07-29T05:12:17;3.97;;;2.53;;
6842;SDS011;3460;52.028;8.916;2023-07-29T05:14:44;6.87;;;2.57;;
6842;SDS011;3460;52.028;8.916;2023-07-29T05:17:11;3.93;;;2.30;;
6842;SDS011;3460;52.028;8.916;2023-07-29T05:19:38;3.43;;;2.00;;
6842;SDS011;3460;52.028;8.916;2023-07-29T05:22:06;3.73;;;2.57;;
6842;SDS011;3460;52.028;8.916;2023-07-29T05:24:33;3.70;;;2.53;;
6842;SDS011;3460;52.028;8.916;2023-07-29T05:27:00;5.40;;;2.93;;
6842;SDS011;3460;52.028;8.916;2023-07-29T05:29:26;5.20;;;2.60;;
6842;SDS011;3460;52.028;8.916;2023-07-29T05:31:53;4.07;;;2.40;;
6842;SDS011;3460;52.028;8.916;2023-07-29T05:34:20;2.97;;;2.37;;
6842;SDS011;3460;52.028;8.916;2023-07-29T05:36:47;4.23;;;2.93;;
6842;SDS011;3460;52.028;8.916;2023-07-29T05:39:15;4.97;;;2.90;;
6842;SDS011;3460;52.028;8.916;2023-07-29T05:41:41;2.30;;;2.07;;
6842;SDS011;3460;52.028;8.916;2023-07-29T05:44:08;4.10;;;2.30;;
6842;SDS011;3460;52.028;8.916;2023-07-29T05:46:35;3.23;;;2.43;;
6842;SDS011;3460;52.028;8.916;2023-07-29T05:49:02;4.50;;;2.40;;
6842;SDS011;3460;52.028;8.916;2023-07-29T05:51:29;4.43;;;2.93;;
6842;SDS011;3460;52.028;8.916;2023-07-29T05:53:55;4.30;;;2.77;;
6842;SDS011;3460;52.028;8.916;2023-07-29T05:56:23;2.77;;;2.43;;
6842;SDS011;3460;52.028;8.916;2023-07-29T05:58:50;4.80;;;2.17;;
6842;SDS011;3460;52.028;8.916;2023-07-29T06:01:17;5.50;;;2.40;;
6842;SDS011;3460;52.028;8.916;2023-07-29T06:03:46;3.00;;;2.10;;
6842;SDS011;3460;52.028;8.916;2023-07-29T06:06:13;3.67;;;2.27;;
6842;SDS011;3460;52.028;8.916;2023-07-29T06:08:40;3.10;;;2.20;;
6842;SDS011;3460;52.028;8.916;2023-07-29T06:11:06;2.20;;;1.97;;
6842;SDS011;3460;52.028;8.916;2023-07-29T06:13:34;3.47;;;2.20;;
6842;SDS011;3460;52.028;8.916;2023-07-29T06:16:01;4.00;;;3.70;;
6842;SDS011;3460;52.028;8.916;2023-07-29T06:18:29;4.47;;;2.80;;
6842;SDS011;3460;52.028;8.916;2023-07-29T06:20:55;4.27;;;3.87;;
6842;SDS011;3460;52.028;8.916;2023-07-29T06:23:23;2.67;;;2.40;;
6842;SDS011;3460;52.028;8.916;2023-07-29T06:25:49;6.10;;;2.77;;
6842;SDS011;3460;52.028;8.916;2023-07-29T06:28:16;8.03;;;2.47;;
6842;SDS011;3460;52.028;8.916;2023-07-29T06:30:44;6.03;;;3.53;;
6842;SDS011;3460;52.028;8.916;2023-07-29T06:33:11;3.27;;;2.60;;
6842;SDS011;3460;52.028;8.916;2023-07-29T06:35:38;3.60;;;2.10;;
6842;SDS011;3460;52.028;8.916;2023-07-29T06:38:05;3.30;;;2.00;;
6842;SDS011;3460;52.028;8.916;2023-07-29T06:40:31;2.90;;;1.83;;
6842;SDS011;3460;52.028;8.916;2023-07-29T06:42:58;3.70;;;2.17;;
6842;SDS011;3460;52.028;8.916;2023-07-29T06:45:25;6.53;;;2.77;;
6842;SDS011;3460;52.028;8.916;2023-07-29T06:47:54;5.07;;;2.37;;
6842;SDS011;3460;52.028;8.916;2023-07-29T06:50:20;7.17;;;4.67;;
6842;SDS011;3460;52.028;8.916;2023-07-29T06:52:47;4.40;;;2.50;;
6842;SDS011;3460;52.028;8.916;2023-07-29T06:55:14;2.80;;;1.90;;
6842;SDS011;3460;52.028;8.916;2023-07-29T06:57:41;3.13;;;1.97;;
6842;SDS011;3460;52.028;8.916;2023-07-29T07:00:08;5.53;;;3.87;;
6842;SDS011;3460;52.028;8.916;2023-07-29T07:02:35;6.13;;;3.13;;
6842;SDS011;3460;52.028;8.916;2023-07-29T07:05:03;2.93;;;2.47;;
6842;SDS011;3460;52.028;8.916;2023-07-29T07:07:31;5.80;;;4.83;;
6842;SDS011;3460;52.028;8.916;2023-07-29T07:09:57;4.93;;;2.67;;
6842;SDS011;3460;52.028;8.916;2023-07-29T07:12:24;3.63;;;3.33;;
6842;SDS011;3460;52.028;8.916;2023-07-29T07:14:51;2.63;;;2.43;;
6842;SDS011;3460;52.028;8.916;2023-07-29T07:17:18;3.50;;;1.77;;
6842;SDS011;3460;52.028;8.916;2023-07-29T07:19:45;3.10;;;2.63;;
6842;SDS011;3460;52.028;8.916;2023-07-29T07:22:13;4.73;;;4.37;;
6842;SDS011;3460;52.028;8.916;2023-07-29T07:24:40;5.00;;;2.07;;
6842;SDS011;3460;52.028;8.916;2023-07-29T07:27:07;3.53;;;2.00;;
6842;SDS011;3460;52.028;8.916;2023-07-29T07:29:34;2.43;;;2.23;;
6842;SDS011;3460;52.028;8.916;2023-07-29T07:32:01;5.10;;;4.70;;
6842;SDS011;3460;52.028;8.916;2023-07-29T07:34:27;4.50;;;3.10;;
6842;SDS011;3460;52.028;8.916;2023-07-29T07:36:54;2.63;;;2.43;;
6842;SDS011;3460;52.028;8.916;2023-07-29T07:39:22;6.63;;;6.10;;
6842;SDS011;3460;52.028;8.916;2023-07-29T07:41:49;5.50;;;4.40;;
6842;SDS011;3460;52.028;8.916;2023-07-29T07:44:16;5.83;;;5.23;;
6842;SDS011;3460;52.028;8.916;2023-07-29T07:46:44;4.03;;;3.00;;
6842;SDS011;3460;52.028;8.916;2023-07-29T07:49:11;5.93;;;5.33;;
6842;SDS011;3460;52.028;8.916;2023-07-29T07:51:38;7.40;;;6.57;;
6842;SDS011;3460;52.028;8.916;2023-07-29T07:54:05;10.07;;;9.07;;
6842;SDS011;3460;52.028;8.916;2023-07-29T07:56:33;9.73;;;7.20;;
6842;SDS011;3460;52.028;8.916;2023-07-29T07:59:00;7.47;;;6.77;;
6842;SDS011;3460;52.028;8.916;2023-07-29T08:01:27;8.30;;;7.20;;
6842;SDS011;3460;52.028;8.916;2023-07-29T08:03:54;10.00;;;9.00;;
6842;SDS011;3460;52.028;8.916;2023-07-29T08:06:20;12.10;;;10.77;;
6842;SDS011;3460;52.028;8.916;2023-07-29T08:08:47;10.47;;;9.40;;
6842;SDS011;3460;52.028;8.916;2023-07-29T08:11:14;11.20;;;10.15;;
6842;SDS011;3460;52.028;8.916;2023-07-29T08:13:42;14.43;;;13.07;;
6842;SDS011;3460;52.028;8.916;2023-07-29T08:16:09;15.38;;;13.93;;
6842;SDS011;3460;52.028;8.916;2023-07-29T08:18:36;16.17;;;14.45;;
6842;SDS011;3460;52.028;8.916;2023-07-29T08:21:02;18.45;;;16.77;;
6842;SDS011;3460;52.028;8.916;2023-07-29T08:23:30;14.03;;;12.67;;
6842;SDS011;3460;52.028;8.916;2023-07-29T08:25:57;13.25;;;11.88;;
6842;SDS011;3460;52.028;8.916;2023-07-29T08:28:27;15.23;;;13.80;;
6842;SDS011;3460;52.028;8.916;2023-07-29T08:30:56;18.60;;;16.95;;
6842;SDS011;3460;52.028;8.916;2023-07-29T08:33:22;14.50;;;13.18;;
6842;SDS011;3460;52.028;8.916;2023-07-29T08:35:50;17.13;;;15.75;;
6842;SDS011;3460;52.028;8.916;2023-07-29T08:38:16;14.27;;;13.05;;
6842;SDS011;3460;52.028;8.916;2023-07-29T08:40:45;14.65;;;13.48;;
6842;SDS011;3460;52.028;8.916;2023-07-29T08:43:15;11.85;;;10.75;;
6842;SDS011;3460;52.028;8.916;2023-07-29T08:45:44;13.70;;;12.57;;
6842;SDS011;3460;52.028;8.916;2023-07-29T08:48:15;14.15;;;12.98;;
6842;SDS011;3460;52.028;8.916;2023-07-29T08:50:49;12.05;;;10.95;;
6842;SDS011;3460;52.028;8.916;2023-07-29T08:53:18;13.02;;;12.00;;
6842;SDS011;3460;52.028;8.916;2023-07-29T08:55:46;12.32;;;11.38;;
6842;SDS011;3460;52.028;8.916;2023-07-29T08:58:13;16.90;;;12.30;;
6842;SDS011;3460;52.028;8.916;2023-07-29T09:00:41;12.38;;;11.55;;
6842;SDS011;3460;52.028;8.916;2023-07-29T09:03:08;9.43;;;7.50;;
6842;SDS011;3460;52.028;8.916;2023-07-29T09:05:37;10.98;;;10.05;;
6842;SDS011;3460;52.028;8.916;2023-07-29T09:08:04;12.48;;;11.60;;
6842;SDS011;3460;52.028;8.916;2023-07-29T09:10:34;10.00;;;9.15;;
6842;SDS011;3460;52.028;8.916;2023-07-29T09:13:02;11.82;;;7.05;;
6842;SDS011;3460;52.028;8.916;2023-07-29T09:15:28;13.80;;;12.32;;
6842;SDS011;3460;52.028;8.916;2023-07-29T09:17:56;11.43;;;10.50;;
6842;SDS011;3460;52.028;8.916;2023-07-29T09:20:24;13.02;;;11.75;;
6842;SDS011;3460;52.028;8.916;2023-07-29T09:22:53;9.43;;;8.55;;
6842;SDS011;3460;52.028;8.916;2023-07-29T09:25:24;12.95;;;12.02;;
6842;SDS011;3460;52.028;8.916;2023-07-29T09:27:51;10.85;;;10.13;;
6842;SDS011;3460;52.028;8.916;2023-07-29T09:30:18;12.45;;;11.63;;
6842;SDS011;3460;52.028;8.916;2023-07-29T09:32:45;10.35;;;9.50;;
6842;SDS011;3460;52.028;8.916;2023-07-29T09:35:12;13.85;;;12.57;;
6842;SDS011;3460;52.028;8.916;2023-07-29T09:37:39;18.38;;;16.95;;
6842;SDS011;3460;52.028;8.916;2023-07-29T09:40:12;11.02;;;10.27;;
6842;SDS011;3460;52.028;8.916;2023-07-29T09:42:47;10.63;;;9.70;;
6842;SDS011;3460;52.028;8.916;2023-07-29T09:45:19;10.52;;;9.77;;
6842;SDS011;3460;52.028;8.916;2023-07-29T09:47:46;10.63;;;9.85;;
6842;SDS011;3460;52.028;8.916;2023-07-29T09:50:14;10.85;;;10.00;;
6842;SDS011;3460;52.028;8.916;2023-07-29T09:52:41;32.05;;;24.90;;
6842;SDS011;3460;52.028;8.916;2023-07-29T09:55:10;29.38;;;19.52;;
6842;SDS011;3460;52.028;8.916;2023-07-29T09:57:39;29.98;;;24.60;;
6842;SDS011;3460;52.028;8.916;2023-07-29T10:00:06;28.40;;;24.35;;
6842;SDS011;3460;52.028;8.916;2023-07-29T10:02:36;28.35;;;21.90;;
6842;SDS011;3460;52.028;8.916;2023-07-29T10:05:04;35.45;;;29.25;;
6842;SDS011;3460;52.028;8.916;2023-07-29T10:07:32;38.72;;;24.58;;
6842;SDS011;3460;52.028;8.916;2023-07-29T10:10:00;34.45;;;31.13;;
6842;SDS011;3460;52.028;8.916;2023-07-29T10:12:29;42.25;;;32.00;;
6842;SDS011;3460;52.028;8.916;2023-07-29T10:14:58;32.67;;;29.15;;
6842;SDS011;3460;52.028;8.916;2023-07-29T10:17:26;32.42;;;26.50;;
6842;SDS011;3460;52.028;8.916;2023-07-29T10:19:53;36.72;;;32.90;;
6842;SDS011;3460;52.028;8.916;2023-07-29T10:22:22;30.67;;;24.92;;
6842;SDS011;3460;52.028;8.916;2023-07-29T10:24:53;32.15;;;27.98;;
6842;SDS011;3460;52.028;8.916;2023-07-29T10:27:22;30.90;;;27.58;;
6842;SDS011;3460;52.028;8.916;2023-07-29T10:29:52;31.30;;;27.27;;
6842;SDS011;3460;52.028;8.916;2023-07-29T10:32:21;34.83;;;30.45;;
6842;SDS011;3460;52.028;8.916;2023-07-29T10:34:51;32.00;;;26.33;;
6842;SDS011;3460;52.028;8.916;2023-07-29T10:37:18;34.42;;;26.67;;
6842;SDS011;3460;52.028;8.916;2023-07-29T10:39:51;32.78;;;24.67;;
6842;SDS011;3460;52.028;8.916;2023-07-29T10:42:19;37.45;;;28.75;;
6842;SDS011;3460;52.028;8.916;2023-07-29T10:44:47;35.47;;;29.30;;
6842;SDS011;3460;52.028;8.916;2023-07-29T10:47:19;42.25;;;26.05;;
6842;SDS011;3460;52.028;8.916;2023-07-29T10:49:50;35.17;;;30.52;;
6842;SDS011;3460;52.028;8.916;2023-07-29T10:52:37;42.47;;;32.58;;
6842;SDS011;3460;52.028;8.916;2023-07-29T10:55:23;32.15;;;26.58;;
6842;SDS011;3460;52.028;8.916;2023-07-29T10:57:52;43.15;;;31.77;;
6842;SDS011;3460;52.028;8.916;2023-07-29T11:00:30;41.63;;;32.90;;
6842;SDS011;3460;52.028;8.916;2023-07-29T11:03:00;43.20;;;34.83;;
6842;SDS011;3460;52.028;8.916;2023-07-29T11:05:41;40.00;;;33.38;;
6842;SDS011;3460;52.028;8.916;2023-07-29T11:08:20;41.55;;;30.50;;
6842;SDS011;3460;52.028;8.916;2023-07-29T11:10:58;34.42;;;29.52;;
6842;SDS011;3460;52.028;8.916;2023-07-29T11:13:27;41.83;;;32.97;;
6842;SDS011;3460;52.028;8.916;2023-07-29T11:15:54;42.30;;;30.50;;
6842;SDS011;3460;52.028;8.916;2023-07-29T11:18:25;37.13;;;30.30;;
6842;SDS011;3460;52.028;8.916;2023-07-29T11:20:54;35.08;;;25.83;;
6842;SDS011;3460;52.028;8.916;2023-07-29T11:23:27;40.50;;;29.83;;
6842;SDS011;3460;52.028;8.916;2023-07-29T11:25:55;35.65;;;31.70;;
6842;SDS011;3460;52.028;8.916;2023-07-29T11:28:23;39.22;;;30.73;;
6842;SDS011;3460;52.028;8.916;2023-07-29T11:30:50;36.05;;;30.45;;
6842;SDS011;3460;52.028;8.916;2023-07-29T11:33:17;38.45;;;32.53;;
6842;SDS011;3460;52.028;8.916;2023-07-29T11:35:47;42.00;;;29.85;;
6842;SDS011;3460;52.028;8.916;2023-07-29T11:38:15;92.15;;;55.33;;
6842;SDS011;3460;52.028;8.916;2023-07-29T11:40:42;53.40;;;41.65;;
6842;SDS011;3460;52.028;8.916;2023-07-29T11:43:09;48.75;;;32.97;;
6842;SDS011;3460;52.028;8.916;2023-07-29T11:45:44;59.83;;;44.65;;
6842;SDS011;3460;52.028;8.916;2023-07-29T11:48:11;38.50;;;31.92;;
6842;SDS011;3460;52.028;8.916;2023-07-29T11:50:38;40.85;;;34.10;;
6842;SDS011;3460;52.028;8.916;2023-07-29T11:53:06;36.85;;;28.23;;
6842;SDS011;3460;52.028;8.916;2023-07-29T11:55:33;41.42;;;32.75;;
6842;SDS011;3460;52.028;8.916;2023-07-29T11:58:00;41.78;;;35.55;;
6842;SDS011;3460;52.028;8.916;2023-07-29T12:00:27;39.00;;;31.77;;
6842;SDS011;3460;52.028;8.916;2023-07-29T12:02:54;39.90;;;29.40;;
6842;SDS011;3460;52.028;8.916;2023-07-29T12:05:22;41.30;;;31.90;;
6842;SDS011;3460;52.028;8.916;2023-07-29T12:07:50;39.05;;;30.77;;
6842;SDS011;3460;52.028;8.916;2023-07-29T12:10:19;47.97;;;33.08;;
6842;SDS011;3460;52.028;8.916;2023-07-29T12:12:46;38.55;;;28.23;;
6842;SDS011;3460;52.028;8.916;2023-07-29T12:15:22;39.00;;;31.67;;
6842;SDS011;3460;52.028;8.916;2023-07-29T12:17:52;36.53;;;31.05;;
6842;SDS011;3460;52.028;8.916;2023-07-29T12:20:21;44.70;;;35.13;;
6842;SDS011;3460;52.028;8.916;2023-07-29T12:22:51;39.90;;;30.58;;
6842;SDS011;3460;52.028;8.916;2023-07-29T12:25:20;45.47;;;35.28;;
6842;SDS011;3460;52.028;8.916;2023-07-29T12:27:48;38.63;;;30.75;;
6842;SDS011;3460;52.028;8.916;2023-07-29T12:30:15;47.20;;;35.70;;
6842;SDS011;3460;52.028;8.916;2023-07-29T12:32:45;42.60;;;32.50;;
6842;SDS011;3460;52.028;8.916;2023-07-29T12:35:13;43.03;;;33.38;;
6842;SDS011;3460;52.028;8.916;2023-07-29T12:37:40;39.53;;;31.52;;
6842;SDS011;3460;52.028;8.916;2023-07-29T12:40:08;40.83;;;35.25;;
6842;SDS011;3460;52.028;8.916;2023-07-29T12:42:48;41.40;;;31.77;;
6842;SDS011;3460;52.028;8.916;2023-07-29T12:45:16;43.58;;;28.02;;
6842;SDS011;3460;52.028;8.916;2023-07-29T12:47:43;48.80;;;33.35;;
6842;SDS011;3460;52.028;8.916;2023-07-29T12:50:10;36.30;;;32.33;;
6842;SDS011;3460;52.028;8.916;2023-07-29T12:52:37;39.63;;;25.85;;
6842;SDS011;3460;52.028;8.916;2023-07-29T12:55:04;37.72;;;31.23;;
6842;SDS011;3460;52.028;8.916;2023-07-29T12:57:34;42.15;;;31.52;;
6842;SDS011;3460;52.028;8.916;2023-07-29T13:00:02;42.83;;;32.58;;
6842;SDS011;3460;52.028;8.916;2023-07-29T13:02:29;37.90;;;31.40;;
6842;SDS011;3460;52.028;8.916;2023-07-29T13:04:56;45.33;;;34.92;;
6842;SDS011;3460;52.028;8.916;2023-07-29T13:07:23;45.72;;;30.65;;
6842;SDS011;3460;52.028;8.916;2023-07-29T13:09:49;41.20;;;29.80;;
6842;SDS011;3460;52.028;8.916;2023-07-29T13:12:16;37.05;;;33.00;;
6842;SDS011;3460;52.028;8.916;2023-07-29T13:14:44;37.20;;;29.02;;
6842;SDS011;3460;52.028;8.916;2023-07-29T13:17:11;45.88;;;39.67;;
6842;SDS011;3460;52.028;8.916;2023-07-29T13:19:38;58.47;;;36.67;;
6842;SDS011;3460;52.028;8.916;2023-07-29T13:22:05;48.97;;;43.50;;
6842;SDS011;3460;52.028;8.916;2023-07-29T13:24:32;46.60;;;28.85;;
6842;SDS011;3460;52.028;8.916;2023-07-29T13:26:58;42.63;;;36.53;;
6842;SDS011;3460;52.028;8.916;2023-07-29T13:29:25;40.40;;;27.33;;
6842;SDS011;3460;52.028;8.916;2023-07-29T13:31:53;37.63;;;28.67;;
6842;SDS011;3460;52.028;8.916;2023-07-29T13:34:20;35.20;;;30.75;;
6842;SDS011;3460;52.028;8.916;2023-07-29T13:36:47;47.80;;;36.90;;
6842;SDS011;3460;52.028;8.916;2023-07-29T13:39:14;41.28;;;35.58;;
6842;SDS011;3460;52.028;8.916;2023-07-29T13:41:41;35.83;;;29.20;;
6842;SDS011;3460;52.028;8.916;2023-07-29T13:44:08;41.53;;;29.00;;
6842;SDS011;3460;52.028;8.916;2023-07-29T13:46:35;36.25;;;32.55;;
6842;SDS011;3460;52.028;8.916;2023-07-29T13:49:03;36.58;;;32.55;;
6842;SDS011;3460;52.028;8.916;2023-07-29T13:51:29;42.67;;;31.45;;
6842;SDS011;3460;52.028;8.916;2023-07-29T13:53:56;43.42;;;33.95;;
6842;SDS011;3460;52.028;8.916;2023-07-29T13:56:23;36.20;;;30.73;;
6842;SDS011;3460;52.028;8.916;2023-07-29T13:58:50;47.15;;;39.25;;
6842;SDS011;3460;52.028;8.916;2023-07-29T14:01:17;39.85;;;32.22;;
6842;SDS011;3460;52.028;8.916;2023-07-29T14:03:44;255.20;;;123.93;;
6842;SDS011;3460;52.028;8.916;2023-07-29T14:06:12;36.13;;;32.17;;
6842;SDS011;3460;52.028;8.916;2023-07-29T14:08:39;34.42;;;27.17;;
6842;SDS011;3460;52.028;8.916;2023-07-29T14:11:07;42.80;;;31.98;;
6842;SDS011;3460;52.028;8.916;2023-07-29T14:13:34;42.97;;;37.92;;
6842;SDS011;3460;52.028;8.916;2023-07-29T14:16:00;50.42;;;27.35;;
6842;SDS011;3460;52.028;8.916;2023-07-29T14:18:28;42.00;;;30.80;;
6842;SDS011;3460;52.028;8.916;2023-07-29T14:20:56;35.40;;;31.25;;
6842;SDS011;3460;52.028;8.916;2023-07-29T14:23:24;41.15;;;36.08;;
6842;SDS011;3460;52.028;8.916;2023-07-29T14:25:51;39.72;;;31.67;;
6842;SDS011;3460;52.028;8.916;2023-07-29T14:28:18;41.45;;;24.08;;
6842;SDS011;3460;52.028;8.916;2023-07-29T14:30:45;41.78;;;36.40;;
6842;SDS011;3460;52.028;8.916;2023-07-29T14:33:12;44.33;;;31.35;;
6842;SDS011;3460;52.028;8.916;2023-07-29T14:35:39;35.53;;;31.70;;
6842;SDS011;3460;52.028;8.916;2023-07-29T14:38:06;39.88;;;31.25;;
6842;SDS011;3460;52.028;8.916;2023-07-29T14:40:34;38.88;;;29.90;;
6842;SDS011;3460;52.028;8.916;2023-07-29T14:43:01;36.42;;;30.92;;
6842;SDS011;3460;52.028;8.916;2023-07-29T14:45:28;38.60;;;30.63;;
6842;SDS011;3460;52.028;8.916;2023-07-29T14:47:55;45.40;;;31.92;;
6842;SDS011;3460;52.028;8.916;2023-07-29T14:50:21;34.97;;;31.27;;
6842;SDS011;3460;52.028;8.916;2023-07-29T14:52:48;34.85;;;29.40;;
6842;SDS011;3460;52.028;8.916;2023-07-29T14:55:15;44.83;;;31.92;;
6842;SDS011;3460;52.028;8.916;2023-07-29T14:57:43;37.72;;;30.45;;
6842;SDS011;3460;52.028;8.916;2023-07-29T15:00:11;36.40;;;25.17;;
6842;SDS011;3460;52.028;8.916;2023-07-29T15:02:39;39.85;;;31.83;;
6842;SDS011;3460;52.028;8.916;2023-07-29T15:05:06;32.00;;;28.63;;
6842;SDS011;3460;52.028;8.916;2023-07-29T15:07:34;32.30;;;28.90;;